createdAt,value
2019-01-24T00:01:54.201Z,21.03
2019-01-24T00:04:21.299Z,19.63
2019-01-24T00:06:53.393Z,19.73
2019-01-24T00:09:23.371Z,23.57
2019-01-24T00:11:54.779Z,21.70
2019-01-24T00:14:27.741Z,18.97
2019-01-24T00:17:03.510Z,16.67
2019-01-24T00:19:30.620Z,23.83
2019-01-24T00:21:57.733Z,15.37
2019-01-24T00:24:27.947Z,21.80
2019-01-24T00:27:00.329Z,15.27
2019-01-24T00:29:27.466Z,23.80
2019-01-24T00:31:54.567Z,17.97
2019-01-24T00:34:23.361Z,20.57
2019-01-24T00:36:50.680Z,20.33
2019-01-24T00:39:17.902Z,20.83
2019-01-24T00:41:44.985Z,23.23
2019-01-24T00:44:12.080Z,19.03
2019-01-24T00:46:39.175Z,19.47
2019-01-24T00:49:09.045Z,19.77
2019-01-24T00:51:37.909Z,18.43
2019-01-24T00:54:05.018Z,15.70
2019-01-24T00:56:34.763Z,19.77
2019-01-24T00:59:01.972Z,22.53
2019-01-24T01:01:29.347Z,22.80
2019-01-24T01:03:56.546Z,24.63
2019-01-24T01:06:25.815Z,22.63
2019-01-24T01:08:54.223Z,22.40
2019-01-24T01:11:22.479Z,19.63
2019-01-24T01:13:50.883Z,28.50
2019-01-24T01:16:18.000Z,20.80
2019-01-24T01:18:46.395Z,19.83
2019-01-24T01:21:15.397Z,17.67
2019-01-24T01:23:42.688Z,23.43
2019-01-24T01:26:11.843Z,27.57
2019-01-24T01:28:39.040Z,21.27
2019-01-24T01:31:06.418Z,22.80
2019-01-24T01:33:33.628Z,19.37
2019-01-24T01:36:02.231Z,14.83
2019-01-24T01:38:29.509Z,21.60
2019-01-24T01:40:56.870Z,23.70
2019-01-24T01:43:25.292Z,20.93
2019-01-24T01:45:52.606Z,19.73
2019-01-24T01:48:19.814Z,17.37
2019-01-24T01:50:46.926Z,20.37
2019-01-24T01:53:14.142Z,17.83
2019-01-24T01:55:42.352Z,19.03
2019-01-24T01:58:09.683Z,17.83
2019-01-24T02:00:37.034Z,24.37
2019-01-24T02:03:05.555Z,18.03
2019-01-24T02:05:34.644Z,20.07
2019-01-24T02:08:01.986Z,14.70
2019-01-24T02:10:29.126Z,18.63
2019-01-24T02:12:56.385Z,20.00
2019-01-24T02:15:23.832Z,15.37
2019-01-24T02:17:51.091Z,14.47
2019-01-24T02:20:20.079Z,15.23
2019-01-24T02:22:47.280Z,14.60
2019-01-24T02:25:14.396Z,14.70
2019-01-24T02:27:41.613Z,18.87
2019-01-24T02:30:12.567Z,17.67
2019-01-24T02:32:39.677Z,20.20
2019-01-24T02:35:07.688Z,15.60
2019-01-24T02:37:34.796Z,17.97
2019-01-24T02:40:02.296Z,10.77
2019-01-24T02:42:29.405Z,15.00
2019-01-24T02:44:56.517Z,15.63
2019-01-24T02:47:23.625Z,15.87
2019-01-24T02:49:50.726Z,12.53
2019-01-24T02:52:17.870Z,13.27
2019-01-24T02:54:44.999Z,14.57
2019-01-24T02:57:12.101Z,13.03
2019-01-24T02:59:39.201Z,13.67
2019-01-24T03:02:06.350Z,20.73
2019-01-24T03:04:35.751Z,15.17
2019-01-24T03:07:03.293Z,15.10
2019-01-24T03:09:30.391Z,10.83
2019-01-24T03:11:57.524Z,13.33
2019-01-24T03:14:24.629Z,12.03
2019-01-24T03:16:51.730Z,14.93
2019-01-24T03:19:18.833Z,18.07
2019-01-24T03:21:45.944Z,15.67
2019-01-24T03:24:13.053Z,15.63
2019-01-24T03:26:40.152Z,14.47
2019-01-24T03:29:07.258Z,15.90
2019-01-24T03:31:34.364Z,12.97
2019-01-24T03:34:01.480Z,14.20
2019-01-24T03:36:28.581Z,13.80
2019-01-24T03:38:55.708Z,24.13
2019-01-24T03:41:22.809Z,14.27
2019-01-24T03:43:49.916Z,17.67
2019-01-24T03:46:17.014Z,14.77
2019-01-24T03:48:44.124Z,15.17
2019-01-24T03:51:11.235Z,12.23
2019-01-24T03:53:38.355Z,11.03
2019-01-24T03:56:05.470Z,13.63
2019-01-24T03:58:32.573Z,10.60
2019-01-24T04:00:59.676Z,14.77
2019-01-24T04:03:26.778Z,14.33
2019-01-24T04:05:53.914Z,15.53
2019-01-24T04:08:21.045Z,14.87
2019-01-24T04:10:48.182Z,12.90
2019-01-24T04:13:15.293Z,20.57
2019-01-24T04:15:42.411Z,14.97
2019-01-24T04:18:09.515Z,13.23
2019-01-24T04:20:36.620Z,14.00
2019-01-24T04:23:03.733Z,14.43
2019-01-24T04:25:30.847Z,12.57
2019-01-24T04:27:57.957Z,17.20
2019-01-24T04:30:25.062Z,18.77
2019-01-24T04:32:52.171Z,18.43
2019-01-24T04:35:20.288Z,17.13
2019-01-24T04:37:47.627Z,17.00
2019-01-24T04:40:15.803Z,12.90
2019-01-24T04:42:42.962Z,13.27
2019-01-24T04:45:10.980Z,10.73
2019-01-24T04:47:38.091Z,16.03
2019-01-24T04:50:05.809Z,14.47
2019-01-24T04:52:32.915Z,17.07
2019-01-24T04:55:00.026Z,15.50
2019-01-24T04:57:27.149Z,14.13
2019-01-24T04:59:54.245Z,15.67
2019-01-24T05:02:21.350Z,16.80
2019-01-24T05:04:48.453Z,14.03
2019-01-24T05:07:15.593Z,11.83
2019-01-24T05:09:42.679Z,15.43
2019-01-24T05:12:09.777Z,12.13
2019-01-24T05:14:36.894Z,13.60
2019-01-24T05:17:04.007Z,15.37
2019-01-24T05:19:31.107Z,13.27
2019-01-24T05:21:58.212Z,13.87
2019-01-24T05:24:25.384Z,16.03
2019-01-24T05:26:52.485Z,13.53
2019-01-24T05:29:19.585Z,12.97
2019-01-24T05:31:46.698Z,18.97
2019-01-24T05:34:13.856Z,16.77
2019-01-24T05:36:41.130Z,16.93
2019-01-24T05:39:09.518Z,12.43
2019-01-24T05:41:36.761Z,15.57
2019-01-24T05:44:05.704Z,14.73
2019-01-24T05:46:33.045Z,16.00
2019-01-24T05:49:02.008Z,12.90
2019-01-24T05:51:29.289Z,13.10
2019-01-24T05:53:57.602Z,15.17
2019-01-24T05:56:24.876Z,13.87
2019-01-24T05:58:53.958Z,14.23
2019-01-24T06:01:21.602Z,13.73
2019-01-24T06:03:48.761Z,17.13
2019-01-24T06:06:15.873Z,14.43
2019-01-24T06:08:43.145Z,14.63
2019-01-24T06:11:10.300Z,13.00
2019-01-24T06:13:37.528Z,17.03
2019-01-24T06:16:04.784Z,12.90
2019-01-24T06:18:32.158Z,13.67
2019-01-24T06:21:01.273Z,19.63
2019-01-24T06:23:28.380Z,16.07
2019-01-24T06:25:55.473Z,15.20
2019-01-24T06:28:22.584Z,10.93
2019-01-24T06:30:49.951Z,12.40
2019-01-24T06:33:19.881Z,15.33
2019-01-24T06:35:48.905Z,19.53
2019-01-24T06:38:16.312Z,15.80
2019-01-24T06:40:43.552Z,14.73
2019-01-24T06:43:10.815Z,16.50
2019-01-24T06:45:38.059Z,13.00
2019-01-24T06:48:06.512Z,11.17
2019-01-24T06:50:33.909Z,13.97
2019-01-24T06:53:01.029Z,13.70
2019-01-24T06:55:28.644Z,17.93
2019-01-24T06:57:57.660Z,15.27
2019-01-24T07:00:25.078Z,17.23
2019-01-24T07:02:54.168Z,14.27
2019-01-24T07:05:23.263Z,20.57
2019-01-24T07:07:52.304Z,16.83
2019-01-24T07:10:20.485Z,17.10
2019-01-24T07:12:51.333Z,17.10
2019-01-24T07:15:20.063Z,21.77
2019-01-24T07:17:47.220Z,17.73
2019-01-24T07:20:14.974Z,18.33
2019-01-24T07:22:42.260Z,16.83
2019-01-24T07:25:12.456Z,19.03
2019-01-24T07:27:39.738Z,17.23
2019-01-24T07:30:09.543Z,19.00
2019-01-24T07:32:38.582Z,19.77
2019-01-24T07:35:08.215Z,16.87
2019-01-24T07:37:35.568Z,17.80
2019-01-24T07:40:04.875Z,27.57
2019-01-24T07:42:31.996Z,14.37
2019-01-24T07:44:59.095Z,14.70
2019-01-24T07:47:26.447Z,15.73
2019-01-24T07:49:53.716Z,18.67
2019-01-24T07:52:21.036Z,24.37
2019-01-24T07:54:48.406Z,17.07
2019-01-24T07:57:17.327Z,19.53
2019-01-24T07:59:44.483Z,18.47
2019-01-24T08:02:11.599Z,17.30
2019-01-24T08:04:38.700Z,17.50
2019-01-24T08:07:07.070Z,19.13
2019-01-24T08:09:34.367Z,20.57
2019-01-24T08:12:01.538Z,21.73
2019-01-24T08:14:30.664Z,16.67
2019-01-24T08:16:58.085Z,14.97
2019-01-24T08:19:26.572Z,21.93
2019-01-24T08:21:53.925Z,23.97
2019-01-24T08:24:21.145Z,13.13
2019-01-24T08:26:48.432Z,16.77
2019-01-24T08:29:16.981Z,19.67
2019-01-24T08:31:44.376Z,19.87
2019-01-24T08:34:13.307Z,18.53
2019-01-24T08:36:40.708Z,24.53
2019-01-24T08:39:08.934Z,15.90
2019-01-24T08:41:36.138Z,20.00
2019-01-24T08:44:05.249Z,17.63
2019-01-24T08:46:34.178Z,19.43
2019-01-24T08:49:01.564Z,17.07
2019-01-24T08:51:29.948Z,22.57
2019-01-24T08:53:58.998Z,20.23
2019-01-24T08:56:27.231Z,23.80
2019-01-24T08:58:54.610Z,17.57
2019-01-24T09:01:21.763Z,29.57
2019-01-24T09:03:49.216Z,21.00
2019-01-24T09:06:22.539Z,28.43
2019-01-24T09:08:47.361Z,18.40
2019-01-24T09:11:14.459Z,24.30
2019-01-24T09:13:41.567Z,25.00
2019-01-24T09:16:08.680Z,21.67
2019-01-24T09:18:35.813Z,22.03
2019-01-24T09:21:03.429Z,26.07
2019-01-24T09:23:32.981Z,32.60
2019-01-24T09:26:00.143Z,23.50
2019-01-24T09:28:27.283Z,20.10
2019-01-24T09:30:54.389Z,22.53
2019-01-24T09:33:22.896Z,19.37
2019-01-24T09:35:50.186Z,38.43
2019-01-24T09:38:17.675Z,32.33
2019-01-24T09:40:45.996Z,25.57
2019-01-24T09:43:14.525Z,26.63
2019-01-24T09:45:44.561Z,27.27
2019-01-24T09:48:13.751Z,29.60
2019-01-24T09:50:42.855Z,29.87
2019-01-24T09:53:09.983Z,29.33
2019-01-24T09:55:38.998Z,28.50
2019-01-24T09:58:07.266Z,30.93
2019-01-24T10:00:36.605Z,27.63
2019-01-24T10:03:04.589Z,32.57
2019-01-24T10:05:32.096Z,29.60
2019-01-24T10:07:59.544Z,33.10
2019-01-24T10:10:27.168Z,27.23
2019-01-24T10:12:55.435Z,23.50
2019-01-24T10:15:22.897Z,29.00
2019-01-24T10:17:51.991Z,36.80
2019-01-24T10:20:21.495Z,27.13
2019-01-24T10:22:49.763Z,35.03
2019-01-24T10:25:24.330Z,31.53
2019-01-24T10:27:52.755Z,29.30
2019-01-24T10:30:21.072Z,30.73
2019-01-24T10:32:48.400Z,31.10
2019-01-24T10:35:15.601Z,29.50
2019-01-24T10:37:43.102Z,24.13
2019-01-24T10:40:13.664Z,32.17
2019-01-24T10:42:40.881Z,28.10
2019-01-24T10:45:10.652Z,30.30
2019-01-24T10:47:37.967Z,34.43
2019-01-24T10:50:06.570Z,37.50
2019-01-24T10:52:33.682Z,33.00
2019-01-24T10:55:00.794Z,39.57
2019-01-24T10:57:27.898Z,36.73
2019-01-24T10:59:58.024Z,41.40
2019-01-24T11:02:25.375Z,33.67
2019-01-24T11:04:54.327Z,32.60
2019-01-24T11:07:21.957Z,34.70
2019-01-24T11:09:50.988Z,37.87
2019-01-24T11:12:21.126Z,43.77
2019-01-24T11:14:48.379Z,29.07
2019-01-24T11:17:19.051Z,35.27
2019-01-24T11:19:46.299Z,40.37
2019-01-24T11:22:13.495Z,34.63
2019-01-24T11:24:41.748Z,35.87
2019-01-24T11:27:09.248Z,39.67
2019-01-24T11:29:39.072Z,38.57
2019-01-24T11:32:06.413Z,39.73
2019-01-24T11:34:33.523Z,45.50
2019-01-24T11:37:00.624Z,35.17
2019-01-24T11:39:27.723Z,41.23
2019-01-24T11:41:54.829Z,38.37
2019-01-24T11:44:21.995Z,41.90
2019-01-24T11:46:51.752Z,31.53
2019-01-24T11:49:18.857Z,36.57
2019-01-24T11:51:45.963Z,37.47
2019-01-24T11:54:13.058Z,39.60
2019-01-24T11:56:41.311Z,41.60
2019-01-24T11:59:11.355Z,46.83
2019-01-24T12:01:41.352Z,33.60
2019-01-24T12:04:10.589Z,37.13
2019-01-24T12:06:37.813Z,27.00
2019-01-24T12:09:07.241Z,33.63
2019-01-24T12:11:37.341Z,28.83
2019-01-24T12:14:04.435Z,31.37
2019-01-24T12:16:31.537Z,34.27
2019-01-24T12:18:58.635Z,35.93
2019-01-24T12:21:25.769Z,35.70
2019-01-24T12:23:52.859Z,36.47
2019-01-24T12:26:20.028Z,32.30
2019-01-24T12:28:47.148Z,32.33
2019-01-24T12:31:14.349Z,44.03
2019-01-24T12:33:41.607Z,33.97
2019-01-24T12:36:08.693Z,36.87
2019-01-24T12:38:35.816Z,27.37
2019-01-24T12:41:02.931Z,35.23
2019-01-24T12:43:32.812Z,30.70
2019-01-24T12:45:59.912Z,34.37
2019-01-24T12:48:27.039Z,33.27
2019-01-24T12:51:00.091Z,36.63
2019-01-24T12:53:29.907Z,26.67
2019-01-24T12:55:57.000Z,30.03
2019-01-24T12:58:26.380Z,29.63
2019-01-24T13:00:53.488Z,32.20
2019-01-24T13:03:23.735Z,32.30
2019-01-24T13:05:50.850Z,30.57
2019-01-24T13:08:17.956Z,32.57
2019-01-24T13:10:45.085Z,28.77
2019-01-24T13:13:12.204Z,34.73
2019-01-24T13:15:39.395Z,40.33
2019-01-24T13:18:06.639Z,30.53
2019-01-24T13:20:33.764Z,34.87
2019-01-24T13:23:01.123Z,31.40
2019-01-24T13:25:35.940Z,33.10
2019-01-24T13:28:04.512Z,27.20
2019-01-24T13:30:33.682Z,30.40
2019-01-24T13:33:01.256Z,32.50
2019-01-24T13:35:29.468Z,38.03
2019-01-24T13:37:58.600Z,36.73
2019-01-24T13:40:27.786Z,32.23
2019-01-24T13:42:56.949Z,29.33
2019-01-24T13:45:26.364Z,29.07
2019-01-24T13:47:53.827Z,29.93
2019-01-24T13:50:21.151Z,30.53
2019-01-24T13:52:48.506Z,32.83
2019-01-24T13:55:16.807Z,35.17
2019-01-24T13:57:44.426Z,28.60
2019-01-24T14:00:16.228Z,27.10
2019-01-24T14:02:43.427Z,27.83
2019-01-24T14:05:13.000Z,29.40
2019-01-24T14:07:40.209Z,30.50
2019-01-24T14:10:08.643Z,30.83
2019-01-24T14:12:35.736Z,30.60
2019-01-24T14:15:03.748Z,30.57
2019-01-24T14:17:30.849Z,30.90
2019-01-24T14:19:57.947Z,33.77
2019-01-24T14:22:25.077Z,31.77
2019-01-24T14:24:52.168Z,29.97
2019-01-24T14:27:19.267Z,30.50
2019-01-24T14:29:46.367Z,29.00
2019-01-24T14:32:13.465Z,26.43
2019-01-24T14:34:40.924Z,28.67
2019-01-24T14:37:08.332Z,31.03
2019-01-24T14:39:35.413Z,30.17
2019-01-24T14:42:02.506Z,32.07
2019-01-24T14:44:29.596Z,30.97
2019-01-24T14:46:56.705Z,29.87
2019-01-24T14:49:23.797Z,33.40
2019-01-24T14:51:50.891Z,32.07
2019-01-24T14:54:17.991Z,38.03
2019-01-24T14:56:45.088Z,29.90
2019-01-24T14:59:12.349Z,32.33
2019-01-24T15:01:39.608Z,31.70
2019-01-24T15:04:06.977Z,28.13
2019-01-24T15:06:35.409Z,31.83
2019-01-24T15:09:06.880Z,30.30
2019-01-24T15:11:34.000Z,29.70
2019-01-24T15:14:01.095Z,34.93
2019-01-24T15:16:28.194Z,25.53
2019-01-24T15:18:55.319Z,30.37
2019-01-24T15:21:22.525Z,26.27
2019-01-24T15:23:51.060Z,26.50
2019-01-24T15:26:18.221Z,32.23
2019-01-24T15:28:45.407Z,30.80
2019-01-24T15:31:13.735Z,28.63
2019-01-24T15:33:42.837Z,34.37
2019-01-24T15:36:11.992Z,28.20
2019-01-24T15:38:39.184Z,39.10
2019-01-24T15:41:06.425Z,24.43
2019-01-24T15:43:33.773Z,27.43
2019-01-24T15:46:01.271Z,28.53
2019-01-24T15:48:28.468Z,29.47
2019-01-24T15:50:55.777Z,29.17
2019-01-24T15:53:23.987Z,27.33
2019-01-24T15:55:51.093Z,26.80
2019-01-24T15:58:18.474Z,33.97
2019-01-24T16:00:47.520Z,29.43
2019-01-24T16:03:14.908Z,25.23
2019-01-24T16:05:42.067Z,32.50
2019-01-24T16:08:09.305Z,27.33
2019-01-24T16:10:36.541Z,29.27
2019-01-24T16:13:04.395Z,34.87
2019-01-24T16:15:34.555Z,32.90
2019-01-24T16:18:02.102Z,27.33
2019-01-24T16:20:29.915Z,24.17
2019-01-24T16:22:58.332Z,35.43
2019-01-24T16:25:27.324Z,23.90
2019-01-24T16:27:56.424Z,30.60
2019-01-24T16:30:25.926Z,24.67
2019-01-24T16:32:53.385Z,31.00
2019-01-24T16:35:22.778Z,32.47
2019-01-24T16:37:50.080Z,27.33
2019-01-24T16:40:18.534Z,34.07
2019-01-24T16:42:45.833Z,29.07
2019-01-24T16:45:15.583Z,31.00
2019-01-24T16:47:42.664Z,21.60
2019-01-24T16:50:10.600Z,25.40
2019-01-24T16:52:37.707Z,31.07
2019-01-24T16:55:06.857Z,29.97
2019-01-24T16:57:34.095Z,32.77
2019-01-24T17:00:01.193Z,30.67
2019-01-24T17:02:28.293Z,30.97
2019-01-24T17:04:55.436Z,24.83
2019-01-24T17:07:22.524Z,26.43
2019-01-24T17:09:49.645Z,28.10
2019-01-24T17:12:16.774Z,23.53
2019-01-24T17:14:43.873Z,32.07
2019-01-24T17:17:10.975Z,33.23
2019-01-24T17:19:38.085Z,22.13
2019-01-24T17:22:05.390Z,29.17
2019-01-24T17:24:32.527Z,28.17
2019-01-24T17:26:59.636Z,23.27
2019-01-24T17:29:26.764Z,32.13
2019-01-24T17:31:53.874Z,29.80
2019-01-24T17:34:20.998Z,27.90
2019-01-24T17:36:48.111Z,26.57
2019-01-24T17:39:15.224Z,26.87
2019-01-24T17:41:42.732Z,33.40
2019-01-24T17:44:11.240Z,24.17
2019-01-24T17:46:38.765Z,33.77
2019-01-24T17:49:06.029Z,35.40
2019-01-24T17:51:33.188Z,30.23
2019-01-24T17:54:02.345Z,33.20
2019-01-24T17:56:29.457Z,31.87
2019-01-24T17:58:56.784Z,33.20
2019-01-24T18:01:23.945Z,30.10
2019-01-24T18:03:51.088Z,27.87
2019-01-24T18:06:18.317Z,27.33
2019-01-24T18:08:45.437Z,30.60
2019-01-24T18:11:12.616Z,24.30
2019-01-24T18:13:39.730Z,27.40
2019-01-24T18:16:06.849Z,26.37
2019-01-24T18:18:33.969Z,26.77
2019-01-24T18:21:01.117Z,37.70
2019-01-24T18:23:28.292Z,36.60
2019-01-24T18:25:55.394Z,37.40
2019-01-24T18:28:22.492Z,32.93
2019-01-24T18:30:49.624Z,29.73
2019-01-24T18:33:16.843Z,31.73
2019-01-24T18:35:43.958Z,30.53
2019-01-24T18:38:11.069Z,34.00
2019-01-24T18:40:38.230Z,25.67
2019-01-24T18:43:15.788Z,28.40
2019-01-24T18:45:45.461Z,32.80
2019-01-24T18:48:12.793Z,31.80
2019-01-24T18:50:39.993Z,31.17
2019-01-24T18:53:07.108Z,36.93
2019-01-24T18:55:34.225Z,29.47
2019-01-24T18:58:01.419Z,31.23
2019-01-24T19:00:33.906Z,31.00
2019-01-24T19:03:01.250Z,30.53
2019-01-24T19:05:28.576Z,26.03
2019-01-24T19:07:55.730Z,33.70
2019-01-24T19:10:22.840Z,30.60
2019-01-24T19:12:49.957Z,35.63
2019-01-24T19:15:17.215Z,31.60
2019-01-24T19:17:44.760Z,30.43
2019-01-24T19:20:12.345Z,26.13
2019-01-24T19:22:39.699Z,34.27
2019-01-24T19:25:08.028Z,36.80
2019-01-24T19:27:35.153Z,29.73
2019-01-24T19:30:04.295Z,34.43
2019-01-24T19:32:31.601Z,29.73
2019-01-24T19:34:58.747Z,25.50
2019-01-24T19:37:26.237Z,30.03
2019-01-24T19:39:53.419Z,32.33
2019-01-24T19:42:20.578Z,32.13
2019-01-24T19:44:47.709Z,33.10
2019-01-24T19:47:14.937Z,31.03
2019-01-24T19:49:42.163Z,27.40
2019-01-24T19:52:09.348Z,35.60
2019-01-24T19:54:36.542Z,41.60
2019-01-24T19:57:03.875Z,39.27
2019-01-24T19:59:31.155Z,40.60
2019-01-24T20:01:58.295Z,37.00
2019-01-24T20:04:25.433Z,39.03
2019-01-24T20:06:52.749Z,93.53
2019-01-24T20:09:24.073Z,48.63
2019-01-24T20:11:54.274Z,51.47
2019-01-24T20:14:31.835Z,51.17
2019-01-24T20:17:01.850Z,53.63
2019-01-24T20:19:29.004Z,49.97
2019-01-24T20:21:58.653Z,53.80
2019-01-24T20:24:25.877Z,40.30
2019-01-24T20:26:53.047Z,42.63
2019-01-24T20:29:20.155Z,52.50
2019-01-24T20:31:47.409Z,45.77
2019-01-24T20:34:14.494Z,61.43
2019-01-24T20:36:41.939Z,38.10
2019-01-24T20:39:09.326Z,50.63
2019-01-24T20:41:36.517Z,48.90
2019-01-24T20:44:03.912Z,38.67
2019-01-24T20:46:33.142Z,40.37
2019-01-24T20:49:03.213Z,43.87
2019-01-24T20:51:33.422Z,46.80
2019-01-24T20:54:03.156Z,34.07
2019-01-24T20:56:30.281Z,39.67
2019-01-24T20:58:57.467Z,40.37
2019-01-24T21:01:27.484Z,34.97
2019-01-24T21:03:55.459Z,43.33
2019-01-24T21:06:22.766Z,32.40
2019-01-24T21:08:49.880Z,38.40
2019-01-24T21:11:17.023Z,43.27
2019-01-24T21:13:44.207Z,35.57
2019-01-24T21:16:11.339Z,28.27
2019-01-24T21:19:03.526Z,37.20
2019-01-24T21:21:37.165Z,37.33
2019-01-24T21:24:04.378Z,44.77
2019-01-24T21:26:31.558Z,39.77
2019-01-24T21:29:00.976Z,49.10
2019-01-24T21:31:28.072Z,43.97
2019-01-24T21:33:55.173Z,41.57
2019-01-24T21:36:22.676Z,51.90
2019-01-24T21:38:49.803Z,47.27
2019-01-24T21:41:16.909Z,34.40
2019-01-24T21:43:45.998Z,35.87
2019-01-24T21:46:13.136Z,35.47
2019-01-24T21:48:42.684Z,56.13
2019-01-24T21:51:11.655Z,39.33
2019-01-24T21:53:38.928Z,36.63
2019-01-24T21:56:06.023Z,31.00
2019-01-24T21:58:35.179Z,40.23
2019-01-24T22:01:02.486Z,76.93
2019-01-24T22:03:29.594Z,58.03
2019-01-24T22:05:56.715Z,59.43
2019-01-24T22:08:25.277Z,65.57
2019-01-24T22:10:52.559Z,35.57
2019-01-24T22:13:19.680Z,45.67
2019-01-24T22:15:46.784Z,38.77
2019-01-24T22:18:13.938Z,49.10
2019-01-24T22:20:41.028Z,50.33
2019-01-24T22:23:08.145Z,86.17
2019-01-24T22:25:35.348Z,49.50
2019-01-24T22:28:02.551Z,47.83
2019-01-24T22:30:37.870Z,64.17
2019-01-24T22:33:05.480Z,37.90
2019-01-24T22:35:32.615Z,62.50
2019-01-24T22:37:59.816Z,33.63
2019-01-24T22:40:26.926Z,32.80
2019-01-24T22:42:54.044Z,65.20
2019-01-24T22:45:22.490Z,32.40
2019-01-24T22:47:51.492Z,33.33
2019-01-24T22:50:20.548Z,70.43
2019-01-24T22:52:47.938Z,34.80
2019-01-24T22:55:15.419Z,56.23
2019-01-24T22:57:42.829Z,31.00
2019-01-24T23:01:01.990Z,39.70
2019-01-24T23:03:50.708Z,41.67
2019-01-24T23:06:17.984Z,45.43
2019-01-24T23:08:46.961Z,37.40
2019-01-24T23:11:14.304Z,25.37
2019-01-24T23:13:41.650Z,23.73
2019-01-24T23:16:10.112Z,24.43
2019-01-24T23:18:37.375Z,24.53
2019-01-24T23:21:05.031Z,25.67
2019-01-24T23:23:32.308Z,27.80
2019-01-24T23:26:00.521Z,17.97
2019-01-24T23:28:27.656Z,25.57
2019-01-24T23:30:54.763Z,23.83
2019-01-24T23:33:21.865Z,23.93
2019-01-24T23:35:49.391Z,17.67
2019-01-24T23:38:17.843Z,23.13
2019-01-24T23:40:45.148Z,20.93
2019-01-24T23:43:12.368Z,17.57
2019-01-24T23:45:39.591Z,25.70
2019-01-24T23:48:06.733Z,22.20
2019-01-24T23:50:35.728Z,25.60
2019-01-24T23:53:04.241Z,19.87
2019-01-24T23:55:33.296Z,22.17
2019-01-24T23:58:03.308Z,19.03
